Taiki Maru — JI3464 — position and weather

sailwx.info

Track history (hours):
 
Tides and Currents Weather Stations Pressure Air Temp Water Temp Dewpoint Dewpoint Depression Visibility Wind Speed Wind Dir Waves Ship Positions

Taiki Maru

Last reported at 2015-Feb-28 00:05 UTC. Time now 2015-Mar-01 15:08 UTC.
Position N 34°53' E 139°46'.

Length 93 m; draft 5.2 m.

Type: Cargo ship. MMSI: 431300622.

Date/timePositionNaut miles runAvg speedWind from/ knotsBaromVisibWave heightAir tempDewpointWater temp
2015-Feb-28 00:05N 34°53' E 139°46'712.6
2015-Feb-27 23:33N 34°58' E 139°41'1414.5
2015-Feb-27 22:33N 35°12' E 139°46'1212.5
2015-Feb-27 21:33N 35°24' E 139°42'5 4.9
2015-Feb-27 20:31N 35°29' E 139°40'0 0.0
2015-Feb-27 19:25N 35°29' E 139°40'0 0.0
2015-Feb-27 18:31N 35°29' E 139°40'0 0.0
2015-Feb-27 17:31N 35°29' E 139°40'0 0.0
2015-Feb-27 16:31N 35°29' E 139°40'0 0.0
2015-Feb-27 15:31N 35°29' E 139°40'0 0.0
2015-Feb-27 14:31N 35°29' E 139°40'0 0.0
2015-Feb-27 13:28N 35°29' E 139°40'0 0.0
2015-Feb-27 12:31N 35°29' E 139°40'0 0.0
2015-Feb-27 11:31N 35°29' E 139°40'0 0.0
2015-Feb-27 10:28N 35°29' E 139°40'0 0.0
2015-Feb-27 09:31N 35°29' E 139°40'0 0.0
2015-Feb-27 08:31N 35°29' E 139°40'0 0.0
2015-Feb-27 07:31N 35°29' E 139°40'0 0.0
2015-Feb-27 06:31N 35°29' E 139°40'0 0.0
2015-Feb-27 05:31N 35°29' E 139°40'4 3.4
2015-Feb-27 04:29N 35°25' E 139°42'0 0.1
2015-Feb-27 03:32N 35°25' E 139°42'0 0.0
2015-Feb-27 02:32N 35°25' E 139°42'0 0.0
2015-Feb-27 01:32N 35°25' E 139°42'0 0.0
2015-Feb-27 00:32N 35°25' E 139°42'0 0.0
2015-Feb-26 23:32N 35°25' E 139°42'0 0.1
2015-Feb-26 22:32N 35°25' E 139°42'0 0.0
2015-Feb-26 21:32N 35°25' E 139°42'0 0.0
2015-Feb-26 20:33N 35°25' E 139°42'6 5.9
2015-Feb-26 19:34N 35°20' E 139°43'1111.4
2015-Feb-26 18:33N 35°08' E 139°46'1212.2
2015-Feb-26 17:33N 34°59' E 139°36'  
2015-Feb-19 17:26N 34°06' E 135°01'1011.0
2015-Feb-19 16:33N 34°14' E 135°07'0 0.4
2015-Feb-19 15:33N 34°14' E 135°08'0 0.0
2015-Feb-19 14:31N 34°14' E 135°08'0 0.0
2015-Feb-19 13:28N 34°14' E 135°08'0 0.0
2015-Feb-19 12:31N 34°14' E 135°08'2 2.2
2015-Feb-19 11:32N 34°15' E 135°05'0 0.0
2015-Feb-19 10:32N 34°15' E 135°05'0 0.0
2015-Feb-19 09:32N 34°15' E 135°05'0 0.0
2015-Feb-19 08:32N 34°15' E 135°05'0 0.0
2015-Feb-19 07:32N 34°15' E 135°05'0 0.0
2015-Feb-19 06:32N 34°15' E 135°05'5 5.2
2015-Feb-19 05:34N 34°15' E 134°59'1413.8
2015-Feb-19 04:33N 34°27' E 135°08'1514.5
2015-Feb-19 03:33N 34°37' E 135°21'6 6.1
2015-Feb-19 02:33N 34°40' E 135°27'0 0.0
2015-Feb-19 01:31N 34°40' E 135°27'0 0.0
2015-Feb-19 00:31N 34°40' E 135°27'0 0.0
2015-Feb-18 23:28N 34°40' E 135°27'3 3.7
2015-Feb-18 22:33N 34°38' E 135°23'5 5.3
2015-Feb-18 21:33N 34°35' E 135°18'0 0.0
2015-Feb-18 20:18N 34°35' E 135°18'0 0.0
2015-Feb-18 19:24N 34°35' E 135°18'0 0.0
2015-Feb-18 18:30N 34°35' E 135°18'0 0.0
2015-Feb-18 17:30N 34°35' E 135°18'0 0.0
2015-Feb-18 16:30N 34°35' E 135°18'0 0.0
2015-Feb-18 15:30N 34°35' E 135°18'0 0.0
2015-Feb-18 14:30N 34°35' E 135°18'0 0.0
2015-Feb-18 13:24N 34°35' E 135°18'0 0.0
2015-Feb-18 12:18N 34°35' E 135°18'0 0.0
2015-Feb-18 11:30N 34°35' E 135°18'0 0.0
2015-Feb-18 10:30N 34°35' E 135°18'3 2.8
2015-Feb-18 09:33N 34°33' E 135°16'1312.5
2015-Feb-18 08:33N 34°24' E 135°06'1110.8
2015-Feb-18 07:33N 34°14' E 135°01'9 1.4
2015-Feb-18 01:10N 34°07' E 135°08'  
Track history (hours):
 
Tides and Currents Weather Stations Pressure Air Temp Water Temp Dewpoint Dewpoint Depression Visibility Wind Speed Wind Dir Waves Ship Positions

Taiki Maru

Last reported at 2015-Feb-28 00:05 UTC. Time now 2015-Mar-01 15:08 UTC.
Position N 34°53' E 139°46'.

Length 93 m; draft 5.2 m.

Type: Cargo ship. MMSI: 431300622.

Date/timePositionNaut miles runAvg speedWind from/ knotsBaromVisibWave heightAir tempDewpointWater temp
2015-Feb-28 00:05N 34°53' E 139°46'712.6
2015-Feb-27 23:33N 34°58' E 139°41'1414.5
2015-Feb-27 22:33N 35°12' E 139°46'1212.5
2015-Feb-27 21:33N 35°24' E 139°42'5 4.9
2015-Feb-27 20:31N 35°29' E 139°40'0 0.0
2015-Feb-27 19:25N 35°29' E 139°40'0 0.0
2015-Feb-27 18:31N 35°29' E 139°40'0 0.0
2015-Feb-27 17:31N 35°29' E 139°40'0 0.0
2015-Feb-27 16:31N 35°29' E 139°40'0 0.0
2015-Feb-27 15:31N 35°29' E 139°40'0 0.0
2015-Feb-27 14:31N 35°29' E 139°40'0 0.0
2015-Feb-27 13:28N 35°29' E 139°40'0 0.0
2015-Feb-27 12:31N 35°29' E 139°40'0 0.0
2015-Feb-27 11:31N 35°29' E 139°40'0 0.0
2015-Feb-27 10:28N 35°29' E 139°40'0 0.0
2015-Feb-27 09:31N 35°29' E 139°40'0 0.0
2015-Feb-27 08:31N 35°29' E 139°40'0 0.0
2015-Feb-27 07:31N 35°29' E 139°40'0 0.0
2015-Feb-27 06:31N 35°29' E 139°40'0 0.0
2015-Feb-27 05:31N 35°29' E 139°40'4 3.4
2015-Feb-27 04:29N 35°25' E 139°42'0 0.1
2015-Feb-27 03:32N 35°25' E 139°42'0 0.0
2015-Feb-27 02:32N 35°25' E 139°42'0 0.0
2015-Feb-27 01:32N 35°25' E 139°42'0 0.0
2015-Feb-27 00:32N 35°25' E 139°42'0 0.0
2015-Feb-26 23:32N 35°25' E 139°42'0 0.1
2015-Feb-26 22:32N 35°25' E 139°42'0 0.0
2015-Feb-26 21:32N 35°25' E 139°42'0 0.0
2015-Feb-26 20:33N 35°25' E 139°42'6 5.9
2015-Feb-26 19:34N 35°20' E 139°43'1111.4
2015-Feb-26 18:33N 35°08' E 139°46'1212.2
2015-Feb-26 17:33N 34°59' E 139°36'  
2015-Feb-19 17:26N 34°06' E 135°01'1011.0
2015-Feb-19 16:33N 34°14' E 135°07'0 0.4
2015-Feb-19 15:33N 34°14' E 135°08'0 0.0
2015-Feb-19 14:31N 34°14' E 135°08'0 0.0
2015-Feb-19 13:28N 34°14' E 135°08'0 0.0
2015-Feb-19 12:31N 34°14' E 135°08'2 2.2
2015-Feb-19 11:32N 34°15' E 135°05'0 0.0
2015-Feb-19 10:32N 34°15' E 135°05'0 0.0
2015-Feb-19 09:32N 34°15' E 135°05'0 0.0
2015-Feb-19 08:32N 34°15' E 135°05'0 0.0
2015-Feb-19 07:32N 34°15' E 135°05'0 0.0
2015-Feb-19 06:32N 34°15' E 135°05'5 5.2
2015-Feb-19 05:34N 34°15' E 134°59'1413.8
2015-Feb-19 04:33N 34°27' E 135°08'1514.5
2015-Feb-19 03:33N 34°37' E 135°21'6 6.1
2015-Feb-19 02:33N 34°40' E 135°27'0 0.0
2015-Feb-19 01:31N 34°40' E 135°27'0 0.0
2015-Feb-19 00:31N 34°40' E 135°27'0 0.0
2015-Feb-18 23:28N 34°40' E 135°27'3 3.7
2015-Feb-18 22:33N 34°38' E 135°23'5 5.3
2015-Feb-18 21:33N 34°35' E 135°18'0 0.0
2015-Feb-18 20:18N 34°35' E 135°18'0 0.0
2015-Feb-18 19:24N 34°35' E 135°18'0 0.0
2015-Feb-18 18:30N 34°35' E 135°18'0 0.0
2015-Feb-18 17:30N 34°35' E 135°18'0 0.0
2015-Feb-18 16:30N 34°35' E 135°18'0 0.0
2015-Feb-18 15:30N 34°35' E 135°18'0 0.0
2015-Feb-18 14:30N 34°35' E 135°18'0 0.0
2015-Feb-18 13:24N 34°35' E 135°18'0 0.0
2015-Feb-18 12:18N 34°35' E 135°18'0 0.0
2015-Feb-18 11:30N 34°35' E 135°18'0 0.0
2015-Feb-18 10:30N 34°35' E 135°18'3 2.8
2015-Feb-18 09:33N 34°33' E 135°16'1312.5
2015-Feb-18 08:33N 34°24' E 135°06'1110.8
2015-Feb-18 07:33N 34°14' E 135°01'9 1.4
2015-Feb-18 01:10N 34°07' E 135°08'  

Dump ship's entire track history